WXM80 ListenWXM80 Stop

You find our weather info also at:

UK Metoffice

WeatherCloud

Weather Underground

Northeastern Weather Network

AWEKAS

Citizen Weather Observer Program (CWOP)

HAMweather, WeatherForYou, PWS Weather


Weather Underground History page Text

Daily Summary for February 22, 2017 Units:  Both    English   Metric
« Previous Day
Next Day »
Daily Weekly Monthly Yearly Custom
  High: Low: Average:
Temperature: 51.5 °F /  10.8 °C 41.1 °F /  5.1 °C 45.7 °F /  7.6 °C
Dew Point: 43.3 °F /  6.3 °C 36.9 °F /  2.7 °C 40 °F /  4.4 °C
Humidity: 91 % 70 % 80 %
Wind Speed: 6.3 mph /  10.1 km/h - 1.2 mph /  1.9 km/h
Wind Gust: 11.5 mph /  18.5 km/h - -
Wind:- - SW
Pressure: 30.08 in /  1018.5 hPa 29.85 in /  1010.7 hPa -
Precipitation: 0.00 in /  0 mm    
Historical Graphs
 
 
Tabular Data for February 22, 2017
Time Temperature Dew Point Pressure Wind Wind Speed Wind Gust Humidity Rainfall Rate (Hourly)
00:02 41.1 °F /  5.1 °C 36.9 °F /  2.7 °C 30.08 in /  1018.5 hPa SSW 3.9 mph /  6.3 km/h 4.6 mph /  7.4 km/h 85 % 0.00 in /  0 mm
00:07 41.2 °F /  5.1 °C 37.0 °F /  2.8 °C 30.08 in /  1018.5 hPa SW 4.9 mph /  7.9 km/h 6.9 mph /  11.1 km/h 85 % 0.00 in /  0 mm
00:12 41.2 °F /  5.1 °C 37.0 °F /  2.8 °C 30.08 in /  1018.5 hPa SSW 3.4 mph /  5.5 km/h 4.6 mph /  7.4 km/h 85 % 0.00 in /  0 mm
00:17 41.3 °F /  5.2 °C 37.1 °F /  2.8 °C 30.08 in /  1018.5 hPa SSW 3.2 mph /  5.1 km/h 11.5 mph /  18.5 km/h 85 % 0.00 in /  0 mm
00:22 41.4 °F /  5.2 °C 37.2 °F /  2.9 °C 30.08 in /  1018.5 hPa SSW 4.7 mph /  7.6 km/h 9.2 mph /  14.8 km/h 85 % 0.00 in /  0 mm
00:27 41.5 °F /  5.3 °C 37.3 °F /  2.9 °C 30.07 in /  1018.2 hPa SSW 4.1 mph /  6.6 km/h 6.9 mph /  11.1 km/h 85 % 0.00 in /  0 mm
00:32 41.6 °F /  5.3 °C 37.4 °F /  3 °C 30.07 in /  1018.2 hPa SSW 3.6 mph /  5.8 km/h 5.8 mph /  9.3 km/h 85 % 0.00 in /  0 mm
00:37 41.6 °F /  5.3 °C 37.4 °F /  3 °C 30.07 in /  1018.2 hPa SW 2.3 mph /  3.7 km/h 8.0 mph /  12.9 km/h 85 % 0.00 in /  0 mm
00:42 41.6 °F /  5.3 °C 37.4 °F /  3 °C 30.07 in /  1018.2 hPa WSW 3.3 mph /  5.3 km/h 6.9 mph /  11.1 km/h 85 % 0.00 in /  0 mm
00:47 41.6 °F /  5.3 °C 37.4 °F /  3 °C 30.07 in /  1018.2 hPa WSW 6.3 mph /  10.1 km/h 11.5 mph /  18.5 km/h 85 % 0.00 in /  0 mm
00:52 41.7 °F /  5.4 °C 37.5 °F /  3.1 °C 30.06 in /  1017.8 hPa SSW 5.4 mph /  8.7 km/h 6.9 mph /  11.1 km/h 85 % 0.00 in /  0 mm
00:57 41.8 °F /  5.4 °C 37.6 °F /  3.1 °C 30.07 in /  1018.2 hPa South 2.1 mph /  3.4 km/h 4.6 mph /  7.4 km/h 85 % 0.00 in /  0 mm
01:02 41.8 °F /  5.4 °C 37.6 °F /  3.1 °C 30.07 in /  1018.2 hPa SW 6.1 mph /  9.8 km/h 8.1 mph /  13 km/h 85 % 0.00 in /  0 mm
01:07 41.8 °F /  5.4 °C 37.6 °F /  3.1 °C 30.06 in /  1017.8 hPa SSW 5.5 mph /  8.9 km/h 8.1 mph /  13 km/h 85 % 0.00 in /  0 mm
01:12 41.9 °F /  5.5 °C 37.7 °F /  3.2 °C 30.06 in /  1017.8 hPa SW 2.0 mph /  3.2 km/h 4.0 mph /  6.4 km/h 85 % 0.00 in /  0 mm
01:18 41.9 °F /  5.5 °C 37.7 °F /  3.2 °C 30.06 in /  1017.8 hPa WSW 1.5 mph /  2.4 km/h 4.6 mph /  7.4 km/h 85 % 0.00 in /  0 mm
01:23 42.0 °F /  5.6 °C 37.8 °F /  3.2 °C 30.06 in /  1017.8 hPa SW 2.7 mph /  4.3 km/h 4.0 mph /  6.4 km/h 85 % 0.00 in /  0 mm
01:28 42.0 °F /  5.6 °C 37.8 °F /  3.2 °C 30.05 in /  1017.5 hPa SSW 3.2 mph /  5.1 km/h 5.8 mph /  9.3 km/h 85 % 0.00 in /  0 mm
01:33 42.0 °F /  5.6 °C 37.8 °F /  3.2 °C 30.05 in /  1017.5 hPa SSW 3.9 mph /  6.3 km/h 5.8 mph /  9.3 km/h 85 % 0.00 in /  0 mm
01:38 42.1 °F /  5.6 °C 37.9 °F /  3.3 °C 30.05 in /  1017.5 hPa SSW 3.7 mph /  6 km/h 5.8 mph /  9.3 km/h 85 % 0.00 in /  0 mm
01:43 42.1 °F /  5.6 °C 37.6 °F /  3.1 °C 30.04 in /  1017.2 hPa SW 5.8 mph /  9.3 km/h 8.1 mph /  13 km/h 84 % 0.00 in /  0 mm
01:48 42.2 °F /  5.7 °C 37.7 °F /  3.2 °C 30.04 in /  1017.2 hPa SSW 2.8 mph /  4.5 km/h 7.0 mph /  11.3 km/h 84 % 0.00 in /  0 mm
01:53 42.2 °F /  5.7 °C 37.7 °F /  3.2 °C 30.04 in /  1017.2 hPa SSW 2.2 mph /  3.5 km/h 6.9 mph /  11.1 km/h 84 % 0.00 in /  0 mm
01:58 42.2 °F /  5.7 °C 37.7 °F /  3.2 °C 30.03 in /  1016.8 hPa WSW 3.9 mph /  6.3 km/h 4.6 mph /  7.4 km/h 84 % 0.00 in /  0 mm
02:03 42.2 °F /  5.7 °C 37.7 °F /  3.2 °C 30.04 in /  1017.2 hPa SW 2.1 mph /  3.4 km/h 3.5 mph /  5.6 km/h 84 % 0.00 in /  0 mm
02:08 42.2 °F /  5.7 °C 37.7 °F /  3.2 °C 30.04 in /  1017.2 hPa WSW 0.7 mph /  1.1 km/h 2.3 mph /  3.7 km/h 84 % 0.00 in /  0 mm
02:13 42.2 °F /  5.7 °C 37.7 °F /  3.2 °C 30.04 in /  1017.2 hPa WSW 3.9 mph /  6.3 km/h 6.0 mph /  9.7 km/h 84 % 0.00 in /  0 mm
02:18 42.3 °F /  5.7 °C 37.8 °F /  3.2 °C 30.04 in /  1017.2 hPa SW 2.3 mph /  3.7 km/h 5.8 mph /  9.3 km/h 84 % 0.00 in /  0 mm
02:23 42.3 °F /  5.7 °C 37.8 °F /  3.2 °C 30.04 in /  1017.2 hPa SW 3.0 mph /  4.8 km/h 7.0 mph /  11.3 km/h 84 % 0.00 in /  0 mm
02:28 42.3 °F /  5.7 °C 37.8 °F /  3.2 °C 30.04 in /  1017.2 hPa SW 1.0 mph /  1.6 km/h 4.0 mph /  6.4 km/h 84 % 0.00 in /  0 mm
02:33 42.3 °F /  5.7 °C 37.8 °F /  3.2 °C 30.04 in /  1017.2 hPa SW 3.0 mph /  4.8 km/h 7.0 mph /  11.3 km/h 84 % 0.00 in /  0 mm
02:38 42.4 °F /  5.8 °C 37.9 °F /  3.3 °C 30.04 in /  1017.2 hPa SW 3.5 mph /  5.6 km/h 4.6 mph /  7.4 km/h 84 % 0.00 in /  0 mm
02:43 42.4 °F /  5.8 °C 37.9 °F /  3.3 °C 30.04 in /  1017.2 hPa SW 2.0 mph /  3.2 km/h 7.0 mph /  11.3 km/h 84 % 0.00 in /  0 mm
02:48 42.5 °F /  5.8 °C 38.0 °F /  3.3 °C 30.05 in /  1017.5 hPa WSW 2.0 mph /  3.2 km/h 5.0 mph /  8 km/h 84 % 0.00 in /  0 mm
02:53 42.5 °F /  5.8 °C 38.0 °F /  3.3 °C 30.05 in /  1017.5 hPa Calm   3.0 mph /  4.8 km/h 84 % 0.00 in /  0 mm
02:58 42.5 °F /  5.8 °C 38.0 °F /  3.3 °C 30.06 in /  1017.8 hPa SW 0.6 mph /  1 km/h 3.0 mph /  4.8 km/h 84 % 0.00 in /  0 mm
03:03 42.5 °F /  5.8 °C 38.0 °F /  3.3 °C 30.05 in /  1017.5 hPa Calm   3.0 mph /  4.8 km/h 84 % 0.00 in /  0 mm
03:08 42.5 °F /  5.8 °C 38.0 °F /  3.3 °C 30.05 in /  1017.5 hPa Calm   2.0 mph /  3.2 km/h 84 % 0.00 in /  0 mm
03:13 42.6 °F /  5.9 °C 38.1 °F /  3.4 °C 30.05 in /  1017.5 hPa Calm   2.0 mph /  3.2 km/h 84 % 0.00 in /  0 mm
03:18 42.6 °F /  5.9 °C 38.1 °F /  3.4 °C 30.05 in /  1017.5 hPa SW 1.0 mph /  1.6 km/h 3.0 mph /  4.8 km/h 84 % 0.00 in /  0 mm
03:23 42.6 °F /  5.9 °C 37.8 °F /  3.2 °C 30.05 in /  1017.5 hPa Calm   2.0 mph /  3.2 km/h 83 % 0.00 in /  0 mm
03:28 42.6 °F /  5.9 °C 38.1 °F /  3.4 °C 30.05 in /  1017.5 hPa Calm     84 % 0.00 in /  0 mm
03:33 42.6 °F /  5.9 °C 37.8 °F /  3.2 °C 30.05 in /  1017.5 hPa Calm     83 % 0.00 in /  0 mm
03:38 42.6 °F /  5.9 °C 37.8 °F /  3.2 °C 30.04 in /  1017.2 hPa SW 0.2 mph /  0.3 km/h 2.0 mph /  3.2 km/h 83 % 0.00 in /  0 mm
03:43 42.6 °F /  5.9 °C 37.8 °F /  3.2 °C 30.04 in /  1017.2 hPa Calm   2.0 mph /  3.2 km/h 83 % 0.00 in /  0 mm
03:48 42.6 °F /  5.9 °C 37.8 °F /  3.2 °C 30.04 in /  1017.2 hPa Calm   2.0 mph /  3.2 km/h 83 % 0.00 in /  0 mm
03:53 42.6 °F /  5.9 °C 37.8 °F /  3.2 °C 30.04 in /  1017.2 hPa Calm   3.0 mph /  4.8 km/h 83 % 0.00 in /  0 mm
03:58 42.5 °F /  5.8 °C 38.0 °F /  3.3 °C 30.04 in /  1017.2 hPa SW 2.4 mph /  3.9 km/h 6.0 mph /  9.7 km/h 84 % 0.00 in /  0 mm
04:03 42.5 °F /  5.8 °C 38.0 °F /  3.3 °C 30.04 in /  1017.2 hPa SW 2.0 mph /  3.2 km/h 6.0 mph /  9.7 km/h 84 % 0.00 in /  0 mm
04:08 42.5 °F /  5.8 °C 38.0 °F /  3.3 °C 30.04 in /  1017.2 hPa SSW 2.0 mph /  3.2 km/h 5.0 mph /  8 km/h 84 % 0.00 in /  0 mm
04:13 42.5 °F /  5.8 °C 38.0 °F /  3.3 °C 30.03 in /  1016.8 hPa SSW 1.0 mph /  1.6 km/h 4.0 mph /  6.4 km/h 84 % 0.00 in /  0 mm
04:18 42.5 °F /  5.8 °C 38.0 °F /  3.3 °C 30.03 in /  1016.8 hPa Calm   4.0 mph /  6.4 km/h 84 % 0.00 in /  0 mm
04:23 42.5 °F /  5.8 °C 38.0 °F /  3.3 °C 30.02 in /  1016.5 hPa SSW 1.0 mph /  1.6 km/h 7.0 mph /  11.3 km/h 84 % 0.00 in /  0 mm
04:28 42.6 °F /  5.9 °C 38.1 °F /  3.4 °C 30.02 in /  1016.5 hPa SW 1.4 mph /  2.3 km/h 5.8 mph /  9.3 km/h 84 % 0.00 in /  0 mm
04:33 42.6 °F /  5.9 °C 38.1 °F /  3.4 °C 30.02 in /  1016.5 hPa SW 1.0 mph /  1.6 km/h 6.0 mph /  9.7 km/h 84 % 0.00 in /  0 mm
04:38 42.6 °F /  5.9 °C 38.1 °F /  3.4 °C 30.02 in /  1016.5 hPa SW 1.0 mph /  1.6 km/h 4.0 mph /  6.4 km/h 84 % 0.00 in /  0 mm
04:43 42.6 °F /  5.9 °C 37.8 °F /  3.2 °C 30.02 in /  1016.5 hPa SSW 3.0 mph /  4.8 km/h 5.0 mph /  8 km/h 83 % 0.00 in /  0 mm
04:48 42.6 °F /  5.9 °C 38.1 °F /  3.4 °C 30.02 in /  1016.5 hPa SW 1.2 mph /  1.9 km/h 3.5 mph /  5.6 km/h 84 % 0.00 in /  0 mm
04:49 42.6 °F /  5.9 °C 37.8 °F /  3.2 °C 30.02 in /  1016.5 hPa SW 0.4 mph /  0.6 km/h 3.5 mph /  5.6 km/h 83 % 0.00 in /  0 mm
04:54 42.6 °F /  5.9 °C 37.8 °F /  3.2 °C 30.02 in /  1016.5 hPa SSW 1.7 mph /  2.7 km/h 3.0 mph /  4.8 km/h 83 % 0.00 in /  0 mm
04:59 42.6 °F /  5.9 °C 37.8 °F /  3.2 °C 30.02 in /  1016.5 hPa SW 0.8 mph /  1.3 km/h 3.5 mph /  5.6 km/h 83 % 0.00 in /  0 mm
05:04 42.6 °F /  5.9 °C 37.8 °F /  3.2 °C 30.03 in /  1016.8 hPa SSW 0.7 mph /  1.1 km/h 1.2 mph /  1.9 km/h 83 % 0.00 in /  0 mm
05:09 42.6 °F /  5.9 °C 37.8 °F /  3.2 °C 30.02 in /  1016.5 hPa SSW 1.0 mph /  1.6 km/h 2.3 mph /  3.7 km/h 83 % 0.00 in /  0 mm
05:14 42.6 °F /  5.9 °C 37.8 °F /  3.2 °C 30.02 in /  1016.5 hPa WSW 1.1 mph /  1.8 km/h 3.5 mph /  5.6 km/h 83 % 0.00 in /  0 mm
05:19 42.6 °F /  5.9 °C 37.8 °F /  3.2 °C 30.03 in /  1016.8 hPa SSW 2.9 mph /  4.7 km/h 3.5 mph /  5.6 km/h 83 % 0.00 in /  0 mm
05:25 42.6 °F /  5.9 °C 37.8 °F /  3.2 °C 30.03 in /  1016.8 hPa SW 1.0 mph /  1.6 km/h 3.5 mph /  5.6 km/h 83 % 0.00 in /  0 mm
05:30 42.6 °F /  5.9 °C 37.8 °F /  3.2 °C 30.03 in /  1016.8 hPa SSW 3.0 mph /  4.8 km/h 4.6 mph /  7.4 km/h 83 % 0.00 in /  0 mm
05:35 42.6 °F /  5.9 °C 37.8 °F /  3.2 °C 30.03 in /  1016.8 hPa SSW 1.1 mph /  1.8 km/h 4.0 mph /  6.4 km/h 83 % 0.00 in /  0 mm
05:40 42.6 °F /  5.9 °C 37.8 °F /  3.2 °C 30.03 in /  1016.8 hPa SW 1.1 mph /  1.8 km/h 3.5 mph /  5.6 km/h 83 % 0.00 in /  0 mm
05:45 42.7 °F /  5.9 °C 37.6 °F /  3.1 °C 30.03 in /  1016.8 hPa SW 3.7 mph /  6 km/h 5.8 mph /  9.3 km/h 82 % 0.00 in /  0 mm
05:50 42.7 °F /  5.9 °C 37.6 °F /  3.1 °C 30.03 in /  1016.8 hPa SW 1.5 mph /  2.4 km/h 3.5 mph /  5.6 km/h 82 % 0.00 in /  0 mm
05:55 42.7 °F /  5.9 °C 37.6 °F /  3.1 °C 30.03 in /  1016.8 hPa WSW 3.0 mph /  4.8 km/h 3.5 mph /  5.6 km/h 82 % 0.00 in /  0 mm
06:00 42.7 °F /  5.9 °C 37.6 °F /  3.1 °C 30.02 in /  1016.5 hPa SSW 1.4 mph /  2.3 km/h 3.5 mph /  5.6 km/h 82 % 0.00 in /  0 mm
06:05 42.7 °F /  5.9 °C 37.6 °F /  3.1 °C 30.02 in /  1016.5 hPa SSW 5.0 mph /  8 km/h 5.8 mph /  9.3 km/h 82 % 0.00 in /  0 mm
06:10 42.7 °F /  5.9 °C 37.6 °F /  3.1 °C 30.02 in /  1016.5 hPa WSW 4.2 mph /  6.8 km/h 6.9 mph /  11.1 km/h 82 % 0.00 in /  0 mm
06:15 42.7 °F /  5.9 °C 37.6 °F /  3.1 °C 30.02 in /  1016.5 hPa SW 0.8 mph /  1.3 km/h 3.5 mph /  5.6 km/h 82 % 0.00 in /  0 mm
06:20 42.8 °F /  6 °C 37.7 °F /  3.2 °C 30.02 in /  1016.5 hPa WSW 1.1 mph /  1.8 km/h 6.9 mph /  11.1 km/h 82 % 0.00 in /  0 mm
06:25 42.8 °F /  6 °C 37.7 °F /  3.2 °C 30.02 in /  1016.5 hPa WSW 3.7 mph /  6 km/h 6.9 mph /  11.1 km/h 82 % 0.00 in /  0 mm
06:30 42.8 °F /  6 °C 37.7 °F /  3.2 °C 30.02 in /  1016.5 hPa SSW 3.3 mph /  5.3 km/h 4.6 mph /  7.4 km/h 82 % 0.00 in /  0 mm
06:35 42.8 °F /  6 °C 37.7 °F /  3.2 °C 30.02 in /  1016.5 hPa SSW 2.4 mph /  3.9 km/h 6.9 mph /  11.1 km/h 82 % 0.00 in /  0 mm
06:40 42.9 °F /  6.1 °C 37.8 °F /  3.2 °C 30.01 in /  1016.1 hPa SSW 0.7 mph /  1.1 km/h 3.5 mph /  5.6 km/h 82 % 0.00 in /  0 mm
06:45 42.9 °F /  6.1 °C 37.8 °F /  3.2 °C 30.02 in /  1016.5 hPa WSW 1.9 mph /  3.1 km/h 3.5 mph /  5.6 km/h 82 % 0.00 in /  0 mm
06:50 42.9 °F /  6.1 °C 37.8 °F /  3.2 °C 30.02 in /  1016.5 hPa SW 1.2 mph /  1.9 km/h 3.5 mph /  5.6 km/h 82 % 0.00 in /  0 mm
06:55 43.0 °F /  6.1 °C 37.9 °F /  3.3 °C 30.02 in /  1016.5 hPa WSW 0.7 mph /  1.1 km/h 2.0 mph /  3.2 km/h 82 % 0.00 in /  0 mm
07:00 43.0 °F /  6.1 °C 37.9 °F /  3.3 °C 30.02 in /  1016.5 hPa WSW 0.1 mph /  0.2 km/h 1.0 mph /  1.6 km/h 82 % 0.00 in /  0 mm
07:05 43.0 °F /  6.1 °C 37.9 °F /  3.3 °C 30.02 in /  1016.5 hPa SW 1.0 mph /  1.6 km/h 3.5 mph /  5.6 km/h 82 % 0.00 in /  0 mm
07:10 43.0 °F /  6.1 °C 37.9 °F /  3.3 °C 30.02 in /  1016.5 hPa SW 2.3 mph /  3.7 km/h 3.5 mph /  5.6 km/h 82 % 0.00 in /  0 mm
07:15 43.1 °F /  6.2 °C 38.0 °F /  3.3 °C 30.02 in /  1016.5 hPa SW 0.1 mph /  0.2 km/h 1.0 mph /  1.6 km/h 82 % 0.00 in /  0 mm
07:21 43.1 °F /  6.2 °C 38.0 °F /  3.3 °C 30.02 in /  1016.5 hPa SW 2.2 mph /  3.5 km/h 4.0 mph /  6.4 km/h 82 % 0.00 in /  0 mm
07:26 43.1 °F /  6.2 °C 38.0 °F /  3.3 °C 30.02 in /  1016.5 hPa SW 0.5 mph /  0.8 km/h 2.3 mph /  3.7 km/h 82 % 0.00 in /  0 mm
07:31 43.2 °F /  6.2 °C 38.1 °F /  3.4 °C 30.02 in /  1016.5 hPa Calm   1.2 mph /  1.9 km/h 82 % 0.00 in /  0 mm
07:32 43.2 °F /  6.2 °C 38.1 °F /  3.4 °C 30.02 in /  1016.5 hPa SW 0.3 mph /  0.5 km/h   82 % 0.00 in /  0 mm
07:37 43.2 °F /  6.2 °C 38.1 °F /  3.4 °C 30.02 in /  1016.5 hPa SW 3.1 mph /  5 km/h 4.6 mph /  7.4 km/h 82 % 0.00 in /  0 mm
07:42 43.2 °F /  6.2 °C 38.1 °F /  3.4 °C 30.02 in /  1016.5 hPa SW 0.2 mph /  0.3 km/h 3.5 mph /  5.6 km/h 82 % 0.00 in /  0 mm
07:47 43.3 °F /  6.3 °C 38.2 °F /  3.4 °C 30.02 in /  1016.5 hPa SW 1.9 mph /  3.1 km/h 3.5 mph /  5.6 km/h 82 % 0.00 in /  0 mm
07:52 43.3 °F /  6.3 °C 38.2 °F /  3.4 °C 30.02 in /  1016.5 hPa SW 0.4 mph /  0.6 km/h 2.3 mph /  3.7 km/h 82 % 0.00 in /  0 mm
07:57 43.4 °F /  6.3 °C 38.3 °F /  3.5 °C 30.02 in /  1016.5 hPa SW 2.0 mph /  3.2 km/h 3.5 mph /  5.6 km/h 82 % 0.00 in /  0 mm
08:02 43.5 °F /  6.4 °C 38.4 °F /  3.6 °C 30.02 in /  1016.5 hPa SSW 0.1 mph /  0.2 km/h 1.2 mph /  1.9 km/h 82 % 0.00 in /  0 mm
08:07 43.5 °F /  6.4 °C 38.4 °F /  3.6 °C 30.02 in /  1016.5 hPa SW 0.6 mph /  1 km/h 1.2 mph /  1.9 km/h 82 % 0.00 in /  0 mm
08:12 43.6 °F /  6.4 °C 38.5 °F /  3.6 °C 30.02 in /  1016.5 hPa SW 2.0 mph /  3.2 km/h 3.5 mph /  5.6 km/h 82 % 0.00 in /  0 mm
08:17 43.7 °F /  6.5 °C 38.6 °F /  3.7 °C 30.02 in /  1016.5 hPa Calm   3.5 mph /  5.6 km/h 82 % 0.00 in /  0 mm
08:22 43.8 °F /  6.6 °C 38.7 °F /  3.7 °C 30.02 in /  1016.5 hPa WSW 0.4 mph /  0.6 km/h 2.3 mph /  3.7 km/h 82 % 0.00 in /  0 mm
08:27 43.9 °F /  6.6 °C 38.8 °F /  3.8 °C 30.02 in /  1016.5 hPa SSW 2.0 mph /  3.2 km/h 4.6 mph /  7.4 km/h 82 % 0.00 in /  0 mm
08:32 44.0 °F /  6.7 °C 38.9 °F /  3.8 °C 30.02 in /  1016.5 hPa WNW 1.5 mph /  2.4 km/h 3.5 mph /  5.6 km/h 82 % 0.00 in /  0 mm
08:37 44.1 °F /  6.7 °C 39.0 °F /  3.9 °C 30.01 in /  1016.1 hPa SW 1.2 mph /  1.9 km/h 3.5 mph /  5.6 km/h 82 % 0.00 in /  0 mm
08:42 44.2 °F /  6.8 °C 39.4 °F /  4.1 °C 30.01 in /  1016.1 hPa SW 2.8 mph /  4.5 km/h 4.6 mph /  7.4 km/h 83 % 0.00 in /  0 mm
08:48 44.4 °F /  6.9 °C 39.6 °F /  4.2 °C 30.01 in /  1016.1 hPa SW 3.7 mph /  6 km/h 6.0 mph /  9.7 km/h 83 % 0.00 in /  0 mm
08:53 44.5 °F /  6.9 °C 39.7 °F /  4.3 °C 30.01 in /  1016.1 hPa SW 1.3 mph /  2.1 km/h 3.0 mph /  4.8 km/h 83 % 0.00 in /  0 mm
08:58 44.7 °F /  7.1 °C 40.2 °F /  4.6 °C 30.01 in /  1016.1 hPa WSW 2.6 mph /  4.2 km/h 5.8 mph /  9.3 km/h 84 % 0.00 in /  0 mm
09:03 44.9 °F /  7.2 °C 40.0 °F /  4.4 °C 30.01 in /  1016.1 hPa SW 4.3 mph /  6.9 km/h 6.9 mph /  11.1 km/h 83 % 0.00 in /  0 mm
09:08 45.1 °F /  7.3 °C 40.2 °F /  4.6 °C 30.01 in /  1016.1 hPa SW 3.3 mph /  5.3 km/h 5.8 mph /  9.3 km/h 83 % 0.00 in /  0 mm
09:13 45.3 °F /  7.4 °C 40.4 °F /  4.7 °C 30.01 in /  1016.1 hPa SSW 3.1 mph /  5 km/h 4.6 mph /  7.4 km/h 83 % 0.00 in /  0 mm
09:18 45.6 °F /  7.6 °C 40.4 °F /  4.7 °C 30.01 in /  1016.1 hPa SSW 4.1 mph /  6.6 km/h 5.8 mph /  9.3 km/h 82 % 0.00 in /  0 mm
09:23 45.7 °F /  7.6 °C 40.5 °F /  4.7 °C 30.01 in /  1016.1 hPa WSW 2.3 mph /  3.7 km/h 4.6 mph /  7.4 km/h 82 % 0.00 in /  0 mm
09:28 46.0 °F /  7.8 °C 40.8 °F /  4.9 °C 30.01 in /  1016.1 hPa South 1.1 mph /  1.8 km/h 2.0 mph /  3.2 km/h 82 % 0.00 in /  0 mm
09:33 46.2 °F /  7.9 °C 41.0 °F /  5 °C 30.00 in /  1015.8 hPa SW 2.2 mph /  3.5 km/h 3.5 mph /  5.6 km/h 82 % 0.00 in /  0 mm
09:38 46.5 °F /  8.1 °C 41.3 °F /  5.2 °C 30.00 in /  1015.8 hPa WNW 1.1 mph /  1.8 km/h 4.0 mph /  6.4 km/h 82 % 0.00 in /  0 mm
09:43 46.8 °F /  8.2 °C 41.3 °F /  5.2 °C 30.00 in /  1015.8 hPa West 3.5 mph /  5.6 km/h 6.0 mph /  9.7 km/h 81 % 0.00 in /  0 mm
09:48 47.0 °F /  8.3 °C 41.1 °F /  5.1 °C 30.00 in /  1015.8 hPa WSW 3.0 mph /  4.8 km/h 6.0 mph /  9.7 km/h 80 % 0.00 in /  0 mm
09:53 47.2 °F /  8.4 °C 41.0 °F /  5 °C 30.00 in /  1015.8 hPa WSW 3.0 mph /  4.8 km/h 5.0 mph /  8 km/h 79 % 0.00 in /  0 mm
09:58 47.4 °F /  8.6 °C 40.9 °F /  4.9 °C 30.00 in /  1015.8 hPa West 1.6 mph /  2.6 km/h 4.6 mph /  7.4 km/h 78 % 0.00 in /  0 mm
10:03 47.6 °F /  8.7 °C 41.1 °F /  5.1 °C 30.00 in /  1015.8 hPa NW 1.6 mph /  2.6 km/h 3.5 mph /  5.6 km/h 78 % 0.00 in /  0 mm
10:08 47.7 °F /  8.7 °C 40.8 °F /  4.9 °C 30.00 in /  1015.8 hPa West 2.2 mph /  3.5 km/h 4.6 mph /  7.4 km/h 77 % 0.00 in /  0 mm
10:13 47.7 °F /  8.7 °C 40.8 °F /  4.9 °C 30.00 in /  1015.8 hPa WNW 0.7 mph /  1.1 km/h 3.0 mph /  4.8 km/h 77 % 0.00 in /  0 mm
10:18 47.8 °F /  8.8 °C 40.9 °F /  4.9 °C 29.99 in /  1015.5 hPa WNW 0.5 mph /  0.8 km/h 2.0 mph /  3.2 km/h 77 % 0.00 in /  0 mm
10:23 47.8 °F /  8.8 °C 40.9 °F /  4.9 °C 29.99 in /  1015.5 hPa WNW 0.4 mph /  0.6 km/h 3.5 mph /  5.6 km/h 77 % 0.00 in /  0 mm
10:28 47.9 °F /  8.8 °C 41.0 °F /  5 °C 29.99 in /  1015.5 hPa WNW 0.3 mph /  0.5 km/h 1.2 mph /  1.9 km/h 77 % 0.00 in /  0 mm
10:33 47.9 °F /  8.8 °C 40.7 °F /  4.8 °C 29.99 in /  1015.5 hPa WNW 0.7 mph /  1.1 km/h 2.3 mph /  3.7 km/h 76 % 0.00 in /  0 mm
10:38 48.0 °F /  8.9 °C 41.1 °F /  5.1 °C 29.99 in /  1015.5 hPa West 3.0 mph /  4.8 km/h 5.0 mph /  8 km/h 77 % 0.00 in /  0 mm
10:43 48.1 °F /  8.9 °C 41.2 °F /  5.1 °C 29.99 in /  1015.5 hPa West 0.3 mph /  0.5 km/h 2.3 mph /  3.7 km/h 77 % 0.00 in /  0 mm
10:49 48.1 °F /  8.9 °C 40.9 °F /  4.9 °C 29.98 in /  1015.1 hPa WSW 1.6 mph /  2.6 km/h 4.0 mph /  6.4 km/h 76 % 0.00 in /  0 mm
10:54 48.1 °F /  8.9 °C 40.5 °F /  4.7 °C 29.98 in /  1015.1 hPa WSW 1.1 mph /  1.8 km/h 4.0 mph /  6.4 km/h 75 % 0.00 in /  0 mm
10:59 48.1 °F /  8.9 °C 40.5 °F /  4.7 °C 29.98 in /  1015.1 hPa Calm   2.3 mph /  3.7 km/h 75 % 0.00 in /  0 mm
11:04 48.1 °F /  8.9 °C 40.9 °F /  4.9 °C 29.98 in /  1015.1 hPa West 2.2 mph /  3.5 km/h 3.5 mph /  5.6 km/h 76 % 0.00 in /  0 mm
11:09 48.2 °F /  9 °C 41.0 °F /  5 °C 29.98 in /  1015.1 hPa WSW 3.1 mph /  5 km/h 6.9 mph /  11.1 km/h 76 % 0.00 in /  0 mm
11:14 48.1 °F /  8.9 °C 40.9 °F /  4.9 °C 29.98 in /  1015.1 hPa SW 3.6 mph /  5.8 km/h 8.1 mph /  13 km/h 76 % 0.00 in /  0 mm
11:19 48.2 °F /  9 °C 41.3 °F /  5.2 °C 29.98 in /  1015.1 hPa West 1.0 mph /  1.6 km/h 3.5 mph /  5.6 km/h 77 % 0.00 in /  0 mm
11:24 48.2 °F /  9 °C 41.3 °F /  5.2 °C 29.97 in /  1014.8 hPa West 2.0 mph /  3.2 km/h 3.5 mph /  5.6 km/h 77 % 0.00 in /  0 mm
11:29 48.2 °F /  9 °C 42.0 °F /  5.6 °C 29.97 in /  1014.8 hPa WSW 1.9 mph /  3.1 km/h 2.3 mph /  3.7 km/h 79 % 0.00 in /  0 mm
11:34 48.2 °F /  9 °C 42.3 °F /  5.7 °C 29.97 in /  1014.8 hPa West 0.2 mph /  0.3 km/h 1.2 mph /  1.9 km/h 80 % 0.00 in /  0 mm
11:39 48.2 °F /  9 °C 42.3 °F /  5.7 °C 29.97 in /  1014.8 hPa NW 1.2 mph /  1.9 km/h 1.2 mph /  1.9 km/h 80 % 0.00 in /  0 mm
11:44 48.1 °F /  8.9 °C 42.2 °F /  5.7 °C 29.97 in /  1014.8 hPa WNW 3.0 mph /  4.8 km/h 3.5 mph /  5.6 km/h 80 % 0.00 in /  0 mm
11:49 47.9 °F /  8.8 °C 42.3 °F /  5.7 °C 29.97 in /  1014.8 hPa WNW 0.9 mph /  1.4 km/h 3.5 mph /  5.6 km/h 81 % 0.00 in /  0 mm
11:54 47.8 °F /  8.8 °C 42.3 °F /  5.7 °C 29.96 in /  1014.4 hPa WNW 0.8 mph /  1.3 km/h 2.3 mph /  3.7 km/h 81 % 0.00 in /  0 mm
11:59 47.8 °F /  8.8 °C 42.6 °F /  5.9 °C 29.96 in /  1014.4 hPa WNW 1.8 mph /  2.9 km/h 3.5 mph /  5.6 km/h 82 % 0.00 in /  0 mm
12:04 47.8 °F /  8.8 °C 42.6 °F /  5.9 °C 29.95 in /  1014.1 hPa WNW 2.9 mph /  4.7 km/h 3.5 mph /  5.6 km/h 82 % 0.00 in /  0 mm
12:09 47.9 °F /  8.8 °C 42.7 °F /  5.9 °C 29.95 in /  1014.1 hPa WNW 1.1 mph /  1.8 km/h 3.5 mph /  5.6 km/h 82 % 0.00 in /  0 mm
12:14 48.0 °F /  8.9 °C 42.4 °F /  5.8 °C 29.95 in /  1014.1 hPa WNW 2.5 mph /  4 km/h 3.5 mph /  5.6 km/h 81 % 0.00 in /  0 mm
12:19 48.0 °F /  8.9 °C 42.1 °F /  5.6 °C 29.94 in /  1013.8 hPa WNW 2.4 mph /  3.9 km/h 3.5 mph /  5.6 km/h 80 % 0.00 in /  0 mm
12:24 48.1 °F /  8.9 °C 41.9 °F /  5.5 °C 29.94 in /  1013.8 hPa WNW 1.8 mph /  2.9 km/h 4.0 mph /  6.4 km/h 79 % 0.00 in /  0 mm
12:25 48.1 °F /  8.9 °C 41.9 °F /  5.5 °C 29.94 in /  1013.8 hPa WNW 1.9 mph /  3.1 km/h 2.3 mph /  3.7 km/h 79 % 0.00 in /  0 mm
12:30 48.1 °F /  8.9 °C 41.9 °F /  5.5 °C 29.94 in /  1013.8 hPa NW 0.6 mph /  1 km/h 3.5 mph /  5.6 km/h 79 % 0.00 in /  0 mm
12:35 48.1 °F /  8.9 °C 41.9 °F /  5.5 °C 29.94 in /  1013.8 hPa NW 1.9 mph /  3.1 km/h 2.3 mph /  3.7 km/h 79 % 0.00 in /  0 mm
12:40 48.0 °F /  8.9 °C 41.8 °F /  5.4 °C 29.94 in /  1013.8 hPa NW 0.8 mph /  1.3 km/h 3.5 mph /  5.6 km/h 79 % 0.00 in /  0 mm
12:45 48.1 °F /  8.9 °C 41.9 °F /  5.5 °C 29.94 in /  1013.8 hPa NW 0.6 mph /  1 km/h 2.0 mph /  3.2 km/h 79 % 0.00 in /  0 mm
12:50 48.2 °F /  9 °C 42.0 °F /  5.6 °C 29.93 in /  1013.4 hPa WNW 0.1 mph /  0.2 km/h 1.2 mph /  1.9 km/h 79 % 0.00 in /  0 mm
12:55 48.3 °F /  9.1 °C 41.8 °F /  5.4 °C 29.93 in /  1013.4 hPa WNW 1.2 mph /  1.9 km/h 3.5 mph /  5.6 km/h 78 % 0.00 in /  0 mm
13:00 48.5 °F /  9.2 °C 42.0 °F /  5.6 °C 29.93 in /  1013.4 hPa NW 0.6 mph /  1 km/h 3.5 mph /  5.6 km/h 78 % 0.00 in /  0 mm
13:05 48.7 °F /  9.3 °C 41.8 °F /  5.4 °C 29.93 in /  1013.4 hPa Calm   1.2 mph /  1.9 km/h 77 % 0.00 in /  0 mm
13:10 48.7 °F /  9.3 °C 41.8 °F /  5.4 °C 29.92 in /  1013.1 hPa Calm     77 % 0.00 in /  0 mm
13:15 49.0 °F /  9.4 °C 42.4 °F /  5.8 °C 29.92 in /  1013.1 hPa Calm     78 % 0.00 in /  0 mm
13:20 49.1 °F /  9.5 °C 41.9 °F /  5.5 °C 29.91 in /  1012.8 hPa Calm     76 % 0.00 in /  0 mm
13:25 49.3 °F /  9.6 °C 42.4 °F /  5.8 °C 29.91 in /  1012.8 hPa Calm     77 % 0.00 in /  0 mm
13:30 49.5 °F /  9.7 °C 42.2 °F /  5.7 °C 29.91 in /  1012.8 hPa NW 0.7 mph /  1.1 km/h 2.3 mph /  3.7 km/h 76 % 0.00 in /  0 mm
13:35 49.8 °F /  9.9 °C 42.2 °F /  5.7 °C 29.90 in /  1012.4 hPa NW 0.4 mph /  0.6 km/h 1.2 mph /  1.9 km/h 75 % 0.00 in /  0 mm
13:40 49.8 °F /  9.9 °C 42.2 °F /  5.7 °C 29.90 in /  1012.4 hPa NNW 1.1 mph /  1.8 km/h 2.3 mph /  3.7 km/h 75 % 0.00 in /  0 mm
13:46 49.9 °F /  9.9 °C 42.3 °F /  5.7 °C 29.90 in /  1012.4 hPa NNW 1.3 mph /  2.1 km/h 2.3 mph /  3.7 km/h 75 % 0.00 in /  0 mm
13:51 50.2 °F /  10.1 °C 42.9 °F /  6.1 °C 29.89 in /  1012.1 hPa NE 1.9 mph /  3.1 km/h 2.3 mph /  3.7 km/h 76 % 0.00 in /  0 mm
13:56 50.5 °F /  10.3 °C 42.9 °F /  6.1 °C 29.89 in /  1012.1 hPa NE 0.9 mph /  1.4 km/h 3.5 mph /  5.6 km/h 75 % 0.00 in /  0 mm
14:01 51.0 °F /  10.6 °C 43.0 °F /  6.1 °C 29.89 in /  1012.1 hPa NNE 1.7 mph /  2.7 km/h 3.5 mph /  5.6 km/h 74 % 0.00 in /  0 mm
14:06 51.3 °F /  10.7 °C 43.3 °F /  6.3 °C 29.88 in /  1011.7 hPa ENE 2.6 mph /  4.2 km/h 3.5 mph /  5.6 km/h 74 % 0.00 in /  0 mm
14:11 51.4 °F /  10.8 °C 43.0 °F /  6.1 °C 29.88 in /  1011.7 hPa NE 1.7 mph /  2.7 km/h 3.5 mph /  5.6 km/h 73 % 0.00 in /  0 mm
14:16 51.5 °F /  10.8 °C 42.8 °F /  6 °C 29.88 in /  1011.7 hPa NE 1.4 mph /  2.3 km/h 3.5 mph /  5.6 km/h 72 % 0.00 in /  0 mm
14:21 51.5 °F /  10.8 °C 42.8 °F /  6 °C 29.88 in /  1011.7 hPa NNE 3.5 mph /  5.6 km/h 4.0 mph /  6.4 km/h 72 % 0.00 in /  0 mm
14:26 51.3 °F /  10.7 °C 41.8 °F /  5.4 °C 29.88 in /  1011.7 hPa NNE 2.9 mph /  4.7 km/h 4.6 mph /  7.4 km/h 70 % 0.00 in /  0 mm
14:31 51.1 °F /  10.6 °C 42.0 °F /  5.6 °C 29.88 in /  1011.7 hPa NNE 1.9 mph /  3.1 km/h 3.5 mph /  5.6 km/h 71 % 0.00 in /  0 mm
14:36 50.9 °F /  10.5 °C 42.2 °F /  5.7 °C 29.88 in /  1011.7 hPa North 1.3 mph /  2.1 km/h 3.5 mph /  5.6 km/h 72 % 0.00 in /  0 mm
14:41 50.6 °F /  10.3 °C 41.5 °F /  5.3 °C 29.88 in /  1011.7 hPa NNE 2.9 mph /  4.7 km/h 4.6 mph /  7.4 km/h 71 % 0.00 in /  0 mm
14:46 50.3 °F /  10.2 °C 41.3 °F /  5.2 °C 29.88 in /  1011.7 hPa North 2.1 mph /  3.4 km/h 3.5 mph /  5.6 km/h 71 % 0.00 in /  0 mm
14:51 50.0 °F /  10 °C 41.0 °F /  5 °C 29.88 in /  1011.7 hPa North 1.0 mph /  1.6 km/h 3.5 mph /  5.6 km/h 71 % 0.00 in /  0 mm
14:56 49.9 °F /  9.9 °C 40.9 °F /  4.9 °C 29.89 in /  1012.1 hPa North 2.3 mph /  3.7 km/h 3.5 mph /  5.6 km/h 71 % 0.00 in /  0 mm
15:01 49.7 °F /  9.8 °C 40.7 °F /  4.8 °C 29.89 in /  1012.1 hPa NNE 1.6 mph /  2.6 km/h 3.5 mph /  5.6 km/h 71 % 0.00 in /  0 mm
15:06 49.6 °F /  9.8 °C 40.6 °F /  4.8 °C 29.89 in /  1012.1 hPa North 2.2 mph /  3.5 km/h 5.0 mph /  8 km/h 71 % 0.00 in /  0 mm
15:11 49.4 °F /  9.7 °C 40.4 °F /  4.7 °C 29.89 in /  1012.1 hPa NNW 1.6 mph /  2.6 km/h 3.5 mph /  5.6 km/h 71 % 0.00 in /  0 mm
15:16 49.2 °F /  9.6 °C 40.6 °F /  4.8 °C 29.89 in /  1012.1 hPa North 2.8 mph /  4.5 km/h 3.5 mph /  5.6 km/h 72 % 0.00 in /  0 mm
15:21 49.1 °F /  9.5 °C 40.5 °F /  4.7 °C 29.89 in /  1012.1 hPa North 2.3 mph /  3.7 km/h 3.5 mph /  5.6 km/h 72 % 0.00 in /  0 mm
15:26 49.0 °F /  9.4 °C 40.4 °F /  4.7 °C 29.89 in /  1012.1 hPa North 1.9 mph /  3.1 km/h 3.5 mph /  5.6 km/h 72 % 0.00 in /  0 mm
15:31 49.1 °F /  9.5 °C 40.5 °F /  4.7 °C 29.89 in /  1012.1 hPa NNW 1.7 mph /  2.7 km/h 3.5 mph /  5.6 km/h 72 % 0.00 in /  0 mm
15:37 49.1 °F /  9.5 °C 40.1 °F /  4.5 °C 29.88 in /  1011.7 hPa NNW 1.3 mph /  2.1 km/h 3.5 mph /  5.6 km/h 71 % 0.00 in /  0 mm
15:42 49.2 °F /  9.6 °C 40.6 °F /  4.8 °C 29.89 in /  1012.1 hPa NNW 0.5 mph /  0.8 km/h 1.2 mph /  1.9 km/h 72 % 0.00 in /  0 mm
15:47 49.4 °F /  9.7 °C 40.7 °F /  4.8 °C 29.89 in /  1012.1 hPa NNW 0.5 mph /  0.8 km/h 2.3 mph /  3.7 km/h 72 % 0.00 in /  0 mm
15:52 49.5 °F /  9.7 °C 40.8 °F /  4.9 °C 29.89 in /  1012.1 hPa NNW 0.4 mph /  0.6 km/h 1.2 mph /  1.9 km/h 72 % 0.00 in /  0 mm
15:57 49.7 °F /  9.8 °C 41.0 °F /  5 °C 29.88 in /  1011.7 hPa NNW 1.2 mph /  1.9 km/h 2.3 mph /  3.7 km/h 72 % 0.00 in /  0 mm
16:02 49.9 °F /  9.9 °C 41.2 °F /  5.1 °C 29.88 in /  1011.7 hPa Calm     72 % 0.00 in /  0 mm
16:07 50.0 °F /  10 °C 41.0 °F /  5 °C 29.88 in /  1011.7 hPa Calm   1.2 mph /  1.9 km/h 71 % 0.00 in /  0 mm
16:12 50.0 °F /  10 °C 41.0 °F /  5 °C 29.88 in /  1011.7 hPa Calm     71 % 0.00 in /  0 mm
16:17 50.1 °F /  10.1 °C 41.1 °F /  5.1 °C 29.88 in /  1011.7 hPa Calm     71 % 0.00 in /  0 mm
16:22 50.2 °F /  10.1 °C 41.5 °F /  5.3 °C 29.89 in /  1012.1 hPa Calm     72 % 0.00 in /  0 mm
16:27 50.2 °F /  10.1 °C 41.5 °F /  5.3 °C 29.89 in /  1012.1 hPa Calm   1.2 mph /  1.9 km/h 72 % 0.00 in /  0 mm
16:32 50.3 °F /  10.2 °C 41.3 °F /  5.2 °C 29.89 in /  1012.1 hPa NNW 0.4 mph /  0.6 km/h 1.2 mph /  1.9 km/h 71 % 0.00 in /  0 mm
16:37 50.2 °F /  10.1 °C 40.8 °F /  4.9 °C 29.89 in /  1012.1 hPa Calm   1.2 mph /  1.9 km/h 70 % 0.00 in /  0 mm
16:39 50.2 °F /  10.1 °C 41.2 °F /  5.1 °C 29.89 in /  1012.1 hPa NNW 0.2 mph /  0.3 km/h 1.2 mph /  1.9 km/h 71 % 0.00 in /  0 mm
16:44 50.2 °F /  10.1 °C 41.2 °F /  5.1 °C 29.89 in /  1012.1 hPa Calm   1.2 mph /  1.9 km/h 71 % 0.00 in /  0 mm
16:49 50.2 °F /  10.1 °C 41.2 °F /  5.1 °C 29.89 in /  1012.1 hPa Calm     71 % 0.00 in /  0 mm
16:54 50.1 °F /  10.1 °C 41.4 °F /  5.2 °C 29.89 in /  1012.1 hPa Calm   1.2 mph /  1.9 km/h 72 % 0.00 in /  0 mm
16:59 50.1 °F /  10.1 °C 41.8 °F /  5.4 °C 29.89 in /  1012.1 hPa Calm     73 % 0.00 in /  0 mm
17:04 50.1 °F /  10.1 °C 41.4 °F /  5.2 °C 29.89 in /  1012.1 hPa Calm     72 % 0.00 in /  0 mm
17:09 50.0 °F /  10 °C 41.7 °F /  5.4 °C 29.89 in /  1012.1 hPa Calm     73 % 0.00 in /  0 mm
17:14 49.9 °F /  9.9 °C 41.6 °F /  5.3 °C 29.89 in /  1012.1 hPa Calm     73 % 0.00 in /  0 mm
17:19 49.9 °F /  9.9 °C 41.6 °F /  5.3 °C 29.89 in /  1012.1 hPa Calm     73 % 0.00 in /  0 mm
17:24 49.8 °F /  9.9 °C 41.5 °F /  5.3 °C 29.89 in /  1012.1 hPa Calm     73 % 0.00 in /  0 mm
17:29 49.7 °F /  9.8 °C 41.4 °F /  5.2 °C 29.89 in /  1012.1 hPa Calm     73 % 0.00 in /  0 mm
17:34 49.6 °F /  9.8 °C 41.3 °F /  5.2 °C 29.89 in /  1012.1 hPa Calm     73 % 0.00 in /  0 mm
17:39 49.6 °F /  9.8 °C 41.3 °F /  5.2 °C 29.89 in /  1012.1 hPa Calm     73 % 0.00 in /  0 mm
17:44 49.5 °F /  9.7 °C 41.6 °F /  5.3 °C 29.89 in /  1012.1 hPa Calm     74 % 0.00 in /  0 mm
17:49 49.4 °F /  9.7 °C 41.5 °F /  5.3 °C 29.89 in /  1012.1 hPa Calm     74 % 0.00 in /  0 mm
17:54 49.3 °F /  9.6 °C 41.4 °F /  5.2 °C 29.88 in /  1011.7 hPa Calm     74 % 0.00 in /  0 mm
17:59 49.3 °F /  9.6 °C 41.4 °F /  5.2 °C 29.89 in /  1012.1 hPa Calm     74 % 0.00 in /  0 mm
18:04 49.2 °F /  9.6 °C 41.6 °F /  5.3 °C 29.89 in /  1012.1 hPa Calm     75 % 0.00 in /  0 mm
18:09 49.2 °F /  9.6 °C 41.6 °F /  5.3 °C 29.88 in /  1011.7 hPa Calm     75 % 0.00 in /  0 mm
18:15 49.1 °F /  9.5 °C 41.5 °F /  5.3 °C 29.88 in /  1011.7 hPa Calm     75 % 0.00 in /  0 mm
18:20 49.0 °F /  9.4 °C 41.8 °F /  5.4 °C 29.88 in /  1011.7 hPa Calm     76 % 0.00 in /  0 mm
18:25 48.9 °F /  9.4 °C 41.7 °F /  5.4 °C 29.88 in /  1011.7 hPa Calm     76 % 0.00 in /  0 mm
18:30 48.9 °F /  9.4 °C 41.7 °F /  5.4 °C 29.88 in /  1011.7 hPa Calm     76 % 0.00 in /  0 mm
18:35 48.8 °F /  9.3 °C 41.9 °F /  5.5 °C 29.88 in /  1011.7 hPa Calm     77 % 0.00 in /  0 mm
18:40 48.8 °F /  9.3 °C 41.6 °F /  5.3 °C 29.88 in /  1011.7 hPa Calm     76 % 0.00 in /  0 mm
18:45 48.7 °F /  9.3 °C 41.5 °F /  5.3 °C 29.88 in /  1011.7 hPa Calm     76 % 0.00 in /  0 mm
18:50 48.7 °F /  9.3 °C 41.5 °F /  5.3 °C 29.88 in /  1011.7 hPa Calm     76 % 0.00 in /  0 mm
18:55 48.6 °F /  9.2 °C 41.7 °F /  5.4 °C 29.88 in /  1011.7 hPa Calm     77 % 0.00 in /  0 mm
19:00 48.5 °F /  9.2 °C 41.6 °F /  5.3 °C 29.88 in /  1011.7 hPa Calm     77 % 0.00 in /  0 mm
19:05 48.3 °F /  9.1 °C 41.4 °F /  5.2 °C 29.88 in /  1011.7 hPa NNW 0.4 mph /  0.6 km/h 1.2 mph /  1.9 km/h 77 % 0.00 in /  0 mm
19:10 48.3 °F /  9.1 °C 41.4 °F /  5.2 °C 29.88 in /  1011.7 hPa Calm     77 % 0.00 in /  0 mm
19:15 48.2 °F /  9 °C 41.7 °F /  5.4 °C 29.88 in /  1011.7 hPa Calm     78 % 0.00 in /  0 mm
19:21 48.2 °F /  9 °C 42.0 °F /  5.6 °C 29.88 in /  1011.7 hPa Calm     79 % 0.00 in /  0 mm
19:26 48.1 °F /  8.9 °C 41.9 °F /  5.5 °C 29.88 in /  1011.7 hPa West 1.0 mph /  1.6 km/h 2.3 mph /  3.7 km/h 79 % 0.00 in /  0 mm
19:31 48.0 °F /  8.9 °C 42.1 °F /  5.6 °C 29.88 in /  1011.7 hPa West 0.2 mph /  0.3 km/h 1.2 mph /  1.9 km/h 80 % 0.00 in /  0 mm
19:36 48.0 °F /  8.9 °C 42.1 °F /  5.6 °C 29.88 in /  1011.7 hPa Calm     80 % 0.00 in /  0 mm
19:41 47.9 °F /  8.8 °C 42.0 °F /  5.6 °C 29.88 in /  1011.7 hPa Calm     80 % 0.00 in /  0 mm
19:46 47.8 °F /  8.8 °C 41.9 °F /  5.5 °C 29.88 in /  1011.7 hPa Calm     80 % 0.00 in /  0 mm
19:51 47.7 °F /  8.7 °C 41.8 °F /  5.4 °C 29.88 in /  1011.7 hPa Calm     80 % 0.00 in /  0 mm
19:56 47.7 °F /  8.7 °C 42.2 °F /  5.7 °C 29.88 in /  1011.7 hPa Calm     81 % 0.00 in /  0 mm
20:01 47.6 °F /  8.7 °C 42.1 °F /  5.6 °C 29.88 in /  1011.7 hPa Calm     81 % 0.00 in /  0 mm
20:06 47.5 °F /  8.6 °C 42.3 °F /  5.7 °C 29.88 in /  1011.7 hPa Calm     82 % 0.00 in /  0 mm
20:11 47.4 °F /  8.6 °C 42.2 °F /  5.7 °C 29.88 in /  1011.7 hPa Calm     82 % 0.00 in /  0 mm
20:16 47.2 °F /  8.4 °C 42.0 °F /  5.6 °C 29.88 in /  1011.7 hPa Calm     82 % 0.00 in /  0 mm
20:21 47.1 °F /  8.4 °C 42.2 °F /  5.7 °C 29.88 in /  1011.7 hPa Calm     83 % 0.00 in /  0 mm
20:26 46.9 °F /  8.3 °C 42.0 °F /  5.6 °C 29.88 in /  1011.7 hPa Calm     83 % 0.00 in /  0 mm
20:31 46.8 °F /  8.2 °C 41.9 °F /  5.5 °C 29.88 in /  1011.7 hPa Calm     83 % 0.00 in /  0 mm
20:36 46.6 °F /  8.1 °C 41.4 °F /  5.2 °C 29.88 in /  1011.7 hPa Calm     82 % 0.00 in /  0 mm
20:41 46.4 °F /  8 °C 41.2 °F /  5.1 °C 29.88 in /  1011.7 hPa Calm     82 % 0.00 in /  0 mm
20:46 46.2 °F /  7.9 °C 41.0 °F /  5 °C 29.88 in /  1011.7 hPa Calm     82 % 0.00 in /  0 mm
20:51 46.1 °F /  7.8 °C 40.9 °F /  4.9 °C 29.88 in /  1011.7 hPa Calm     82 % 0.00 in /  0 mm
20:52 46.0 °F /  7.8 °C 40.8 °F /  4.9 °C 29.88 in /  1011.7 hPa Calm     82 % 0.00 in /  0 mm
20:57 45.9 °F /  7.7 °C 41.0 °F /  5 °C 29.88 in /  1011.7 hPa Calm     83 % 0.00 in /  0 mm
21:02 45.7 °F /  7.6 °C 41.1 °F /  5.1 °C 29.88 in /  1011.7 hPa Calm     84 % 0.00 in /  0 mm
21:07 45.6 °F /  7.6 °C 41.0 °F /  5 °C 29.89 in /  1012.1 hPa Calm     84 % 0.00 in /  0 mm
21:12 45.4 °F /  7.4 °C 41.2 °F /  5.1 °C 29.88 in /  1011.7 hPa Calm     85 % 0.00 in /  0 mm
21:17 45.2 °F /  7.3 °C 41.0 °F /  5 °C 29.88 in /  1011.7 hPa Calm     85 % 0.00 in /  0 mm
21:22 45.1 °F /  7.3 °C 40.9 °F /  4.9 °C 29.88 in /  1011.7 hPa Calm   1.2 mph /  1.9 km/h 85 % 0.00 in /  0 mm
21:27 44.9 °F /  7.2 °C 40.7 °F /  4.8 °C 29.88 in /  1011.7 hPa Calm     85 % 0.00 in /  0 mm
21:32 44.7 °F /  7.1 °C 40.5 °F /  4.7 °C 29.88 in /  1011.7 hPa Calm     85 % 0.00 in /  0 mm
21:37 44.6 °F /  7 °C 40.4 °F /  4.7 °C 29.88 in /  1011.7 hPa Calm     85 % 0.00 in /  0 mm
21:42 44.4 °F /  6.9 °C 40.2 °F /  4.6 °C 29.88 in /  1011.7 hPa Calm     85 % 0.00 in /  0 mm
21:47 44.3 °F /  6.8 °C 40.4 °F /  4.7 °C 29.87 in /  1011.4 hPa Calm     86 % 0.00 in /  0 mm
21:52 44.2 °F /  6.8 °C 40.3 °F /  4.6 °C 29.87 in /  1011.4 hPa Calm   1.2 mph /  1.9 km/h 86 % 0.00 in /  0 mm
21:57 44.0 °F /  6.7 °C 40.1 °F /  4.5 °C 29.87 in /  1011.4 hPa Calm     86 % 0.00 in /  0 mm
22:02 43.9 °F /  6.6 °C 40.3 °F /  4.6 °C 29.87 in /  1011.4 hPa Calm     87 % 0.00 in /  0 mm
22:08 43.8 °F /  6.6 °C 40.2 °F /  4.6 °C 29.87 in /  1011.4 hPa West 0.7 mph /  1.1 km/h 1.2 mph /  1.9 km/h 87 % 0.00 in /  0 mm
22:13 43.7 °F /  6.5 °C 40.1 °F /  4.5 °C 29.87 in /  1011.4 hPa West 0.1 mph /  0.2 km/h 1.2 mph /  1.9 km/h 87 % 0.00 in /  0 mm
22:18 43.6 °F /  6.4 °C 40.3 °F /  4.6 °C 29.87 in /  1011.4 hPa Calm     88 % 0.00 in /  0 mm
22:23 43.5 °F /  6.4 °C 40.2 °F /  4.6 °C 29.87 in /  1011.4 hPa Calm     88 % 0.00 in /  0 mm
22:28 43.4 °F /  6.3 °C 40.1 °F /  4.5 °C 29.87 in /  1011.4 hPa Calm     88 % 0.00 in /  0 mm
22:33 43.3 °F /  6.3 °C 40.0 °F /  4.4 °C 29.86 in /  1011.1 hPa Calm     88 % 0.00 in /  0 mm
22:38 43.3 °F /  6.3 °C 40.0 °F /  4.4 °C 29.86 in /  1011.1 hPa Calm     88 % 0.00 in /  0 mm
22:43 43.2 °F /  6.2 °C 39.9 °F /  4.4 °C 29.86 in /  1011.1 hPa Calm     88 % 0.00 in /  0 mm
22:48 43.1 °F /  6.2 °C 39.8 °F /  4.3 °C 29.87 in /  1011.4 hPa Calm     88 % 0.00 in /  0 mm
22:53 42.9 °F /  6.1 °C 39.6 °F /  4.2 °C 29.86 in /  1011.1 hPa West 0.4 mph /  0.6 km/h 1.2 mph /  1.9 km/h 88 % 0.00 in /  0 mm
22:58 42.7 °F /  5.9 °C 39.4 °F /  4.1 °C 29.86 in /  1011.1 hPa Calm     88 % 0.00 in /  0 mm
23:03 42.5 °F /  5.8 °C 39.2 °F /  4 °C 29.86 in /  1011.1 hPa Calm     88 % 0.00 in /  0 mm
23:08 42.3 °F /  5.7 °C 38.8 °F /  3.8 °C 29.86 in /  1011.1 hPa Calm     87 % 0.00 in /  0 mm
23:13 42.2 °F /  5.7 °C 38.6 °F /  3.7 °C 29.86 in /  1011.1 hPa Calm     87 % 0.00 in /  0 mm
23:18 42.0 °F /  5.6 °C 38.7 °F /  3.7 °C 29.85 in /  1010.7 hPa Calm     88 % 0.00 in /  0 mm
23:23 41.9 °F /  5.5 °C 38.9 °F /  3.8 °C 29.85 in /  1010.7 hPa Calm     89 % 0.00 in /  0 mm
23:28 41.8 °F /  5.4 °C 39.1 °F /  3.9 °C 29.86 in /  1011.1 hPa Calm     90 % 0.00 in /  0 mm
23:33 41.7 °F /  5.4 °C 39.3 °F /  4.1 °C 29.86 in /  1011.1 hPa Calm     91 % 0.00 in /  0 mm
23:38 41.7 °F /  5.4 °C 39.3 °F /  4.1 °C 29.86 in /  1011.1 hPa Calm     91 % 0.00 in /  0 mm
23:43 41.6 °F /  5.3 °C 39.2 °F /  4 °C 29.86 in /  1011.1 hPa West 1.0 mph /  1.6 km/h 2.0 mph /  3.2 km/h 91 % 0.00 in /  0 mm
23:48 41.5 °F /  5.3 °C 39.1 °F /  3.9 °C 29.85 in /  1010.7 hPa Calm   1.0 mph /  1.6 km/h 91 % 0.00 in /  0 mm
23:53 41.5 °F /  5.3 °C 39.1 °F /  3.9 °C 29.85 in /  1010.7 hPa Calm   1.0 mph /  1.6 km/h 91 % 0.00 in /  0 mm
23:58 41.4 °F /  5.2 °C 39.0 °F /  3.9 °C 29.85 in /  1010.7 hPa Calm   1.2 mph /  1.9 km/h 91 % 0.00 in /  0 mm
Crab Meadow Weather
Compliments of Weather Underground - 3 mb

Script developed by  Jim McMurry - jmcmurry@mwt.net Adapted for the template by  Wim van der Kuil - Leuven-Template.eu

Astronomy: The rings of Saturn are made of ice and rock.